Western, Nebraska
Current Conditions -  °F | °C
As of 5:55 AM on Thursday 27 Nov 2014 (Local Time) from KBIE Reporting Station
Broken Clouds Broken Clouds  
Wind Chill: 15°   Ceiling: 7000
Heat Index: 15°   Visibility: 10mi
Dew Point: 12°   Wind: 3mph
Humidity: 87%   Direction: 40°NE
Pressure: 30.47"   Gusts: NA
Location:  40.39°N, 97.2°W
Report Text: KBIE 271155Z AUTO 04003KT 10SM BKN070 BKN090 M09/M11 A3047 RMK AO2 T10931111 11081 21113 400251113
Loading
Personal Weather Stations






























Interactive Weather Map New forecast layout! Learn more

10-Day Weather Forecast

Advertisements
Track Severe Weather on mobile